Date,TemperatureHighF,TemperatureAvgF,TemperatureLowF,DewpointHighF,DewpointAvgF,DewpointLowF,HumidityHigh,HumidityAvg,HumidityLow,PressureMaxIn,PressureMinIn,WindSpeedMaxMPH,WindSpeedAvgMPH,GustSpeedMaxMPH,PrecipitationSumIn
2013-1-1,49.7,42.8,36.0,43.5,35.2,12.8,94,76,35,30.24,30.00,15,0,15,0.10
2013-1-2,41.8,34.6,31.1,40.5,31.6,27.4,95,89,81,30.27,30.00,9,1,10,0.02
2013-1-3,39.7,32.0,28.1,33.2,26.0,19.6,100,79,54,30.37,30.24,10,0,10,0.00
2013-1-4,37.6,29.5,24.3,22.0,20.4,18.1,77,69,51,30.45,30.34,18,4,19,0.00
2013-1-5,47.2,34.5,25.5,28.3,21.6,19.3,78,61,34,30.54,30.31,12,1,12,0.00
2013-1-6,45.9,36.2,29.7,34.8,30.5,27.2,93,80,62,30.33,30.15,13,1,13,0.01
2013-1-7,45.9,35.2,27.4,30.3,25.7,22.5,82,69,47,30.52,30.30,12,1,17,0.01
2013-1-8,49.2,37.6,24.6,39.0,30.0,21.5,92,75,54,30.56,30.46,9,0,9,0.00
2013-1-9,56.1,47.0,36.7,49.1,43.1,34.6,95,87,70,30.54,30.46,8,0,9,0.00
2013-1-10,60.4,49.6,43.3,47.7,39.2,30.0,92,70,39,30.61,30.44,7,0,9,0.00
2013-1-11,51.2,45.9,41.4,50.4,43.9,38.1,97,93,71,30.44,30.20,6,0,13,0.03
2013-1-12,69.1,56.9,49.5,60.1,54.2,48.4,99,91,70,30.25,30.12,7,0,7,0.01
2013-1-13,66.2,60.0,56.2,58.0,55.9,54.2,95,87,72,30.14,30.04,15,2,16,0.00
2013-1-14,60.6,52.6,42.8,57.4,51.3,41.6,97,95,86,30.26,30.06,12,0,14,1.27
2013-1-15,44.1,41.5,37.5,43.3,40.6,36.7,97,97,96,30.28,30.13,7,0,8,2.13
2013-1-16,57.2,47.1,37.5,53.7,45.4,36.7,99,94,77,30.14,30.02,9,0,11,0.39
2013-1-17,49.4,36.8,29.4,48.3,35.6,28.3,97,95,93,30.28,30.00,7,1,7,0.29
2013-1-18,30.7,25.5,23.9,28.3,24.1,22.2,96,94,86,30.58,30.27,0,0,0,0.00
2013-1-20,46.2,39.0,30.9,32.7,29.9,24.7,85,70,52,30.25,30.14,15,2,21,0.00
2013-1-21,45.2,35.0,26.1,29.1,21.7,9.1,87,60,41,30.17,30.01,26,4,26,0.00
2013-1-22,26.1,19.9,14.4,10.4,1.8,-3.6,57,45,31,30.38,30.07,22,4,26,0.00
2013-1-23,33.9,23.7,12.9,25.0,11.0,-0.0,70,58,50,30.47,30.16,22,2,22,0.00
2013-1-24,38.1,24.2,14.1,27.8,12.3,3.1,71,60,43,30.58,30.09,29,5,29,0.00
2013-1-25,32.5,18.3,14.3,30.8,12.8,4.5,95,79,60,30.59,30.22,15,1,17,0.00
2013-1-26,36.5,30.9,25.1,30.2,25.1,21.0,91,79,64,30.49,30.23,16,3,16,0.07
2013-1-27,33.5,26.8,17.4,26.2,22.0,15.0,93,82,72,30.66,30.48,12,1,13,0.05
2013-1-28,54.2,41.1,31.0,42.4,35.7,26.2,92,82,62,30.56,30.31,12,1,13,0.06
2013-1-29,68.3,53.9,39.5,54.9,46.5,37.1,96,78,51,30.31,30.06,15,1,17,0.00
2013-1-30,59.8,56.3,43.8,58.4,54.7,41.5,98,94,90,30.06,29.42,27,4,28,1.52
2013-1-31,43.7,32.0,27.9,41.5,23.8,17.8,92,72,58,30.05,29.44,29,7,29,0.00